Taniela Bari

Recruteur - Suva
20 Janv 2028
Jeudi
Processus

Personnalité

Adaptabilité (19) Ambition (13) Controverse (6) Loyauté (12) Pression (10) Professionnalisme (15) Sportivité (13) Tempérament (1)

Profil

Style d'entraînement Démocratique
Diplôme National B
Détermination 1
Gestion des joueurs 7
Motivation 2
Discipline 7
Satisfaction professionnelle
100%
Fatigue
0%
Rôle Recruteur
Salaire 17.7K p/s
Contrat 14.03.2028

Performance

Comportement Bon
Efficacité de l'entraînement
24%
Développement des joueurs
5%
Prévention des blessures
35%
Mise en place tactique
15%

Événements récents

A évalué un joueur maintenant
A évalué un joueur maintenant
A participé à une réunion de recrutement maintenant
Négociation de contrat entamée maintenant
En formation continue maintenant
A évalué un joueur maintenant
A évalué un joueur maintenant
Négociation de contrat entamée maintenant

Suivi en cours

382
Joueur Club Statut Capacité Confiance Observé Dernière observation Dernier vote
Felipe Rivarola San Martín Actif 101 / 113 40% 4 19.01.2028 -
Mack Cleberson Murillo Tigres Actif 81 / 100 40% 1 19.01.2028 -
Gabriel Risso Patrón Colón Actif 104 / 103 40% 5 18.01.2028 -
Federico Acosta Miramar Misiones Actif 106 / 99 40% 4 18.01.2028 -
Keimer Sandoval Deportivo Cali Actif 92 / 109 40% 1 18.01.2028 -
Santiago Otegui Plaza Colonia Actif 110 / 95 40% 1 18.01.2028 -
Mateo Rodríguez Artigas Actif 77 / 81 40% 2 17.01.2028 -
Nicolás Iachetti San Martín SJ Actif 114 / 98 40% 2 17.01.2028 -
Oscar Fryer Newcastle Jets Actif 91 / 104 40% 1 17.01.2028 -
Diego Vásquez Agropecuario Argentino Actif 108 / 114 40% 1 17.01.2028 -
Matías Recalde Gimnasia y Esgrima Actif 112 / 116 40% 7 16.01.2028 -
Iván Zafarana All Boys Actif 107 / 117 40% 2 16.01.2028 -
Santiago Corbo Miramar Misiones Actif 110 / 98 40% 3 16.01.2028 -
Koya Hayashida Ventforet Kofu Actif 100 / 98 40% 1 16.01.2028 -
Federico Amestoy Miramar Misiones Actif 88 / 73 40% 7 15.01.2028 -
Juan Monteagudo Defensores Actif 116 / 107 40% 1 15.01.2028 -
Jhon Cortez Barranquilla Actif 86 / 96 40% 1 15.01.2028 -
Jarol Heritier Universidad de Concepcion Actif 106 / 104 40% 1 15.01.2028 -
Gabriel Altamirano Almirante Brown Actif 118 / 103 40% 6 14.01.2028 -
Diego Magallanes Defensores Actif 93 / 107 40% 1 14.01.2028 -
Rosyad Setiawan Semen Padang Actif 83 / 83 40% 4 13.01.2028 -
José Duarte Tacuarembo Actif 98 / 88 40% 2 13.01.2028 -
Emiliano Zambrano Gimnasia y Esgrima Actif 91 / 90 40% 2 13.01.2028 -
Mohamad Anez Borneo Actif 95 / 90 40% 2 13.01.2028 -
Azizbek Abdumajidov Nasinu Actif 72 / 76 40% 3 12.01.2028 -
Staša Bastić Gzira United Actif 87 / 89 40% 1 12.01.2028 -
Maximiliano Ribero Central Norte Actif 102 / 123 40% 1 12.01.2028 -
Wahyudi Hamisi Persijap Actif 89 / 85 40% 10 11.01.2028 -
Agustín Chopitea Colon Actif 112 / 96 40% 1 11.01.2028 -
Aldo Fuentes Madryn Actif 85 / 90 40% 2 10.01.2028 -
Azer Kozić Mosta Actif 73 / 82 40% 3 10.01.2028 -
Román Gutiérrez River Plate Actif 90 / 95 40% 1 10.01.2028 -
Ramy Najjarine Wellington Phoenix Actif 106 / 109 40% 1 10.01.2028 -
Francisco Romero Estudiantes Actif 100 / 101 40% 1 10.01.2028 -
Martín Farías Cerro Actif 82 / 87 40% 1 10.01.2028 -
Cristian González Cerrito Actif 87 / 99 40% 7 09.01.2028 -
Wonderson Yakubu Hapoel Raanana Actif 71 / 87 40% 15 09.01.2028 -
Matías Canedo Rampla Juniors Actif 75 / 101 40% 7 09.01.2028 -
Leandro Allende Colón Actif 102 / 109 40% 1 09.01.2028 -
Luca Duarte Arsenal Actif 94 / 85 40% 1 09.01.2028 -
Rodrigo Fernández Alvarado Actif 81 / 97 40% 4 08.01.2028 -
Ulises Yegros Ferro Carril Oeste Actif 98 / 110 40% 1 08.01.2028 -
Eric Soloppi Barnsley Actif 102 / 106 40% 1 08.01.2028 -
Nicolás Moreno San Martín Actif 95 / 94 40% 6 07.01.2028 -
Francisco Borda Central Norte Actif 90 / 106 40% 4 07.01.2028 -
Danilo Ruiz Díaz Agropecuario Argentino Actif 121 / 105 40% 1 07.01.2028 -
Jonah James Mosta Actif 82 / 95 40% 3 06.01.2028 -
Benjamín Rodríguez Rentistas Actif 101 / 79 40% 2 05.01.2028 -
Vitinho River Plate Actif 103 / 96 40% 1 05.01.2028 -
Luciano Perdomo Chacarita Juniors Actif 119 / 101 40% 1 05.01.2028 -
Franco Pulian Chacarita Juniors Actif 69 / 86 40% 2 04.01.2028 -
Julián Vitale Almagro Actif 98 / 104 40% 2 04.01.2028 -
Nazareno Kihm Ferro Carril Oeste Refusé 120 / 114 40% 4 03.01.2028 Observer
Juan Pablo Córdoba Gimnasia y Esgrima Refusé 107 / 120 67% 4 03.01.2028 Refuser
Francisco Di Franco Defensores Unidos Refusé 105 / 118 67% 3 02.01.2028 Refuser
Jaiden Kucharski Perth Glory Actif 110 / 97 40% 1 02.01.2028 -
Prince Maseko Waitakere United Actif 80 / 88 40% 1 02.01.2028 -
G'anisher Qodirov Shortan Actif 90 / 82 40% 20 01.01.2028 -
Matías Salerno San Telmo Actif 104 / 97 40% 3 01.01.2028 -
Domantas Šimkus Marsaxlokk Actif 106 / 111 40% 3 01.01.2028 -
Owen Colvey WaiBOP United Actif 59 / 62 40% 1 31.12.2027 -
Fernando Gutiérrez Aragua Actif 78 / 91 40% 1 31.12.2027 -
Nicolás Talpone Colón Refusé 125 / 122 40% 8 30.12.2027 Refuser
Mauricio Lacerda Miramar Misiones Actif 91 / 91 40% 6 30.12.2027 -
Abel Argañaraz Gimnasia y Esgrima Actif 109 / 96 40% 5 30.12.2027 -
Matías Mansilla Alvarado Actif 115 / 95 40% 10 29.12.2027 -
Matías Améstica Santiago Wanderers Actif 97 / 90 40% 3 29.12.2027 -
Maximiliano Arias Defensores Actif 90 / 89 40% 2 29.12.2027 -
Axel Oyola Racing Actif 103 / 116 40% 1 29.12.2027 -
Tobias Canale Almagro Actif 73 / 94 40% 1 29.12.2027 -
Ronaldo Royero Depor Actif 81 / 100 40% 7 28.12.2027 -
Nicolás Baigorria San Telmo Actif 98 / 86 40% 2 28.12.2027 -
Santiago Amaral Artigas Actif 69 / 82 40% 2 28.12.2027 -
Jamie Wähling Hibernians Actif 84 / 103 40% 4 28.12.2027 -
Christian Bracco Team Wellington Actif 95 / 87 40% 5 27.12.2027 -
Ramiro Jara Racing Actif 92 / 95 40% 4 27.12.2027 -
Devan Tanton Aguilas Doradas Actif 92 / 102 40% 5 27.12.2027 -
Eugenio Olivera Talleres Refusé 107 / 91 40% 2 27.12.2027 Plus d'infos
Ben Thompson Burton Albion Actif 111 / 106 40% 1 26.12.2027 -
Agustín Kahl Racing Refusé 100 / 120 40% 1 25.12.2027 Plus d'infos
Lorenzo Orzán Colón Actif 78 / 111 40% 2 23.12.2027 -
Mateo Pereyra Tacuarembo Actif 91 / 105 40% 2 23.12.2027 -
Matías Cantero All Boys Actif 94 / 100 40% 1 23.12.2027 -
Krisna Bayu Otto Persik Actif 64 / 70 40% 1 23.12.2027 -
Nicholas Pennington Perth Glory Actif 115 / 112 40% 3 22.12.2027 -
Franco Aguirre San Telmo Actif 102 / 93 40% 3 22.12.2027 -
Ramiro Makarte Alvarado Actif 102 / 117 40% 3 22.12.2027 -
Thomas Rodríguez Banfield Actif 105 / 98 40% 3 21.12.2027 -
Agustín Nadruz Sarmiento Actif 104 / 119 40% 1 21.12.2027 -
Roberto Osorio Atletico Venezuela Actif 61 / 80 40% 1 20.12.2027 -
Lucas Richarte Temperley Actif 113 / 94 40% 1 20.12.2027 -
Tomás Velásquez Deportes Tolima Actif 89 / 102 40% 4 18.12.2027 -
Diego Vargas San Marcos de Arica Refusé 101 / 96 40% 2 17.12.2027 Plus d'infos
Facundo Cardozo San Miguel Refusé 118 / 104 40% 2 17.12.2027 Plus d'infos
Juan Camilo Córdoba Deportivo Pereira Refusé 100 / 86 40% 1 17.12.2027 Plus d'infos
Jhonnys Guerrero La Equidad Actif 76 / 87 40% 2 16.12.2027 -
Ariel Castellano Alvarado Actif 112 / 95 40% 4 16.12.2027 -
Agustín Díaz Estudiantes de Caracas Actif 76 / 90 40% 5 16.12.2027 -
Bruno Motta Oriental Actif 89 / 83 40% 2 15.12.2027 -
Angel Uñates Güemes Actif 97 / 88 40% 2 15.12.2027 -
Pieter Jacobsz Perth Glory Refusé 102 / 108 40% 2 15.12.2027 Plus d'infos
Cristian Guzmán Universitario Popayan Actif 86 / 103 40% 1 15.12.2027 -
Hensen Anponsa Marsaxlokk Actif 78 / 72 40% 1 14.12.2027 -
Angus Kilkolly Auckland City Actif 86 / 92 40% 9 13.12.2027 -
Bruno Ribeiro Cortulua Actif 80 / 78 40% 2 13.12.2027 -
Solomon Onyedikachi Nasinu Actif 68 / 74 40% 4 11.12.2027 -
Lautaro Fernández Alvarado Actif 88 / 103 40% 3 11.12.2027 -
Agustín Tejera Fenix Actif 78 / 98 40% 2 11.12.2027 -
Iván Fernández Colegiales Refusé 110 / 104 40% 7 10.12.2027 Refuser
Germán Cervera Alvarado Actif 94 / 91 40% 1 10.12.2027 -
Matt Palmer Notts County Actif 83 / 75 40% 1 10.12.2027 -
Lucas Abarca Ba Actif 91 / 76 40% 1 10.12.2027 -
Andrew Zamorano Rewa Actif 92 / 79 40% 2 09.12.2027 -
Nahuel Marzochi Colon Actif 89 / 107 40% 5 09.12.2027 -
Mariano Nichele Cerro Refusé 102 / 104 40% 4 09.12.2027 Refuser
Gabriel Ramírez All Boys Actif 104 / 121 40% 5 09.12.2027 -
Axel Pedrozo Almagro Actif 100 / 83 40% 1 08.12.2027 -
Diego Robles Union Espanola Actif 83 / 89 40% 1 08.12.2027 -
Miguel Pernía Estudiantes de Caracas Actif 80 / 87 40% 7 07.12.2027 -
Joaquín Postigo Quilmes Actif 103 / 104 40% 2 07.12.2027 -
Ifeagwu Ojukwu Atyrau Actif 92 / 92 40% 6 06.12.2027 -
Ezequiel Pacheco Chaco For Ever Actif 103 / 84 40% 2 06.12.2027 -
Rodrigo Marín Cerro Actif 85 / 104 40% 1 06.12.2027 -
Ian López Tacuarembo Actif 81 / 105 40% 3 04.12.2027 -
Gabriel Carrasco Los Andes Actif 95 / 104 40% 2 04.12.2027 -
Frank Ruiz Once Caldas Actif 91 / 91 40% 1 04.12.2027 -
Facundo Rodríguez Talleres Actif 83 / 102 40% 1 03.12.2027 -
Barrie Limoki Nadroga Actif 71 / 68 40% 8 02.12.2027 -
Mateo Natale Defensores Actif 106 / 92 40% 3 02.12.2027 -
Joaquín Mateo Central Norte Actif 107 / 106 40% 2 02.12.2027 -
Ignacio Palacio All Boys Actif 105 / 105 40% 2 01.12.2027 -
Leonel Álvarez Gimnasia La Plata Actif 102 / 99 40% 1 01.12.2027 -
Nahuel Frascone Arsenal Actif 93 / 107 40% 9 30.11.2027 -
Samuel Peréa Bogota Actif 75 / 92 40% 1 30.11.2027 -
Renato Alexandrino Oriental Actif 85 / 102 40% 2 28.11.2027 -
Brayan Castro Bogota Actif 90 / 98 40% 1 28.11.2027 -
Pablo da Silveira Cerro Actif 77 / 84 40% 3 26.11.2027 -
Enzo Aguirre Agropecuario Argentino Actif 99 / 102 40% 3 24.11.2027 -
Nicolás Ferreyra Gimnasia y Esgrima Actif 97 / 104 40% 2 24.11.2027 -
Federico Sena Estudiantes Actif 109 / 95 40% 2 24.11.2027 -
Franco Tejera Oriental Actif 79 / 80 40% 1 22.11.2027 -
Chris Payne WaiBOP United Actif 65 / 86 40% 1 18.11.2027 -
Pablo Viudez Rentistas Actif 98 / 94 40% 4 14.11.2027 -
Leenhan Romero Antofagasta Actif 96 / 83 40% 1 14.11.2027 -
Agustín Sosa Madryn Actif 113 / 121 40% 1 13.11.2027 -
Marcelo Ballesteros UTC Actif 57 / 61 40% 2 11.11.2027 -
Daniel Castillo Barranquilla Actif 100 / 87 40% 2 10.11.2027 -
Ferney Rivadeneira Patriotas Actif 72 / 95 40% 1 10.11.2027 -
Frets Butuan Maluku Utara United Actif 61 / 84 40% 2 08.11.2027 -
Juan Ramírez Estudiantes de Caracas Actif 76 / 71 40% 6 07.11.2027 -
Julio Patiño Fortaleza CEIF Actif 72 / 77 40% 2 07.11.2027 -
Luciano Aberasteguy Deportivo Maldonado Actif 73 / 89 40% 1 07.11.2027 -
Giancarlo García Deportivo Pereira Actif 78 / 95 40% 3 06.11.2027 -
Agustín García Rentistas Actif 95 / 103 40% 1 04.11.2027 -
Luis Yanes Real Cartagena Actif 77 / 106 40% 6 03.11.2027 -
Luis Bonilla Aguilas Doradas Actif 83 / 86 40% 1 03.11.2027 -
Juan Esteban García Deportes Tolima Actif 91 / 93 40% 2 01.11.2027 -
Siyabonga Dube Taraz Actif 109 / 94 40% 1 31.10.2027 -
Leonardo González Colegiales Actif 99 / 94 40% 4 29.10.2027 -
Agustín Rodríguez Colon Actif 88 / 91 40% 2 27.10.2027 -
Kou Gotou Irtysh Actif 85 / 94 40% 3 26.10.2027 -
Facundo Umpiérrez Artigas Actif 79 / 98 40% 1 25.10.2027 -
Jerónimo Porto Lapegüe San Telmo Actif 94 / 122 40% 1 23.10.2027 -
Agustín da Rocha Cerrito Actif 104 / 85 40% 2 22.10.2027 -
Juni Antara Bhayangkara Presisi Actif 93 / 70 40% 1 22.10.2027 -
Mauro Molina Estudiantes Actif 97 / 115 40% 2 21.10.2027 -
Franco Tassitani San Telmo Actif 72 / 85 40% 1 21.10.2027 -
Eduardo Esterilla Deportes Quindio Actif 78 / 105 40% 2 19.10.2027 -
Andrei Alba Persis Actif 95 / 95 40% 1 19.10.2027 -
Ryuta Koike Kashima Antlers Actif 102 / 113 40% 1 17.10.2027 -
Ilham Udin Armayn PSBS Biak Actif 80 / 89 40% 3 15.10.2027 -
Facundo Infante Talleres Actif 83 / 99 40% 2 15.10.2027 -
Duván Riascos Deportes Quindio Actif 86 / 104 40% 1 15.10.2027 -
Sam Singh WaiBOP United Actif 70 / 85 40% 1 14.10.2027 -
Catriel Peña Racing Actif 81 / 93 40% 2 13.10.2027 -
Santiago Briñone San Martín Actif 111 / 122 40% 5 11.10.2027 -
Alfonso de Luca Liverpool Montevideo Actif 80 / 101 40% 3 07.10.2027 -
Gonzalo Melgarejo Chaco For Ever Actif 113 / 90 40% 1 07.10.2027 -
Lucas Camejo River Plate Actif 79 / 104 40% 3 06.10.2027 -
Emiliano Bértoli Patronato Actif 84 / 101 40% 2 04.10.2027 -
Juan Pablo Perrotta Santiago Wanderers Actif 90 / 98 40% 1 04.10.2027 -
Román Albornoz Temperley Actif 84 / 87 40% 2 03.10.2027 -
Samuel Posada Leones Actif 80 / 99 40% 3 03.10.2027 -
Óscar Vanegas Güemes Actif 122 / 119 40% 4 30.09.2027 -
Santiago Paulini Maipú Actif 118 / 112 40% 1 26.09.2027 -
Joaquín Zappacosta Morón Actif 105 / 80 40% 1 23.09.2027 -
Thiago Yfran Temperley Actif 103 / 94 40% 1 21.09.2027 -
Nahuel Acosta Progreso Actif 96 / 93 40% 1 20.09.2027 -
Mohamed Bolivar Barranquilla Actif 101 / 81 40% 2 17.09.2027 -
Agustín Ortíz Racing Actif 92 / 91 40% 1 13.09.2027 -
Jeremías Reyna Vélez Actif 102 / 108 40% 1 13.09.2027 -
Matías Billordo Banfield Actif 87 / 86 40% 1 13.09.2027 -
Vincent Sithole Lautoka Actif 68 / 64 40% 1 12.09.2027 -
Ignacio Sabatini Gimnasia y Esgrima Actif 111 / 108 40% 1 12.09.2027 -
Marcelo Olivera Estudiantes Actif 105 / 94 40% 1 11.09.2027 -
Jorge Juárez San Martín Actif 115 / 102 40% 2 09.09.2027 -
Julián Marcioni Colón Actif 113 / 116 40% 3 09.09.2027 -
Simón Meza Cerrito Actif 82 / 100 40% 1 08.09.2027 -
Juan Cekalovich Gimnasia y Esgrima Actif 78 / 104 40% 1 05.09.2027 -
Bobomurod Bozorov Qizilqum Actif 83 / 77 40% 5 04.09.2027 -
Francisco Silva Temperley Actif 102 / 81 40% 1 02.09.2027 -
Maximiliano Romero Mitre Actif 99 / 113 40% 1 02.09.2027 -
Ezequiel Ramírez All Boys Actif 107 / 105 40% 2 01.09.2027 -
Franco Meritello Patronato Actif 101 / 105 40% 1 01.09.2027 -
Michel Silveira Rentistas Actif 96 / 101 40% 1 31.08.2027 -
Luca Barreto La Luz Actif 109 / 108 40% 1 28.08.2027 -
Nicolás Laporte Artigas Actif 67 / 88 40% 1 28.08.2027 -
Camilo Sánchez Miramar Misiones Actif 98 / 94 40% 1 26.08.2027 -
Facundo Vigo Atenas Actif 102 / 105 40% 1 25.08.2027 -
Junior Palacios Real Cartagena Actif 82 / 96 40% 1 25.08.2027 -
Nicolás Fuica Deportivo Maldonado Actif 106 / 96 40% 2 24.08.2027 -
Franco Sassone Defensores Actif 75 / 100 40% 1 23.08.2027 -
Alan Luque Chaco For Ever Actif 96 / 118 40% 1 22.08.2027 -
Riley Foxe Perth Glory Actif 94 / 87 40% 1 22.08.2027 -
José Pérez Universitario Popayan Actif 90 / 89 40% 1 20.08.2027 -
Facundo Montiel Colegiales Actif 98 / 119 40% 2 19.08.2027 -
James Stamatelopoulos Hawke's Bay United Actif 90 / 81 40% 1 19.08.2027 -
Leon Kofana Rewa Actif 77 / 66 40% 2 17.08.2027 -
David Salazar Santiago Wanderers Actif 97 / 92 40% 1 16.08.2027 -
Mauro Muhlethaler Rentistas Actif 103 / 104 40% 2 15.08.2027 -
Mauro Alarcón Defensores Unidos Actif 111 / 102 40% 1 14.08.2027 -
Joel Erlinch Racing Actif 74 / 86 40% 1 13.08.2027 -
Kéiner Rengifo Deportivo Pasto Actif 76 / 91 40% 1 13.08.2027 -
José Movillo O'Higgins Actif 69 / 99 40% 1 11.08.2027 -
Rodrigo Monserrat Colegiales Actif 117 / 91 40% 1 11.08.2027 -
Agustín Acosta Atenas Actif 92 / 89 40% 1 10.08.2027 -
Fabián Ocampos 12 de Octubre Actif 90 / 92 40% 1 09.08.2027 -
German Vallejo Atlético Tucumán Actif 73 / 99 40% 1 08.08.2027 -
Maximiliano Camargo Tacuarembo Actif 94 / 99 40% 1 07.08.2027 -
César Leguizamón River Plate Actif 96 / 89 40% 1 04.08.2027 -
Sebastián Píriz Tacuarembo Actif 96 / 85 40% 2 03.08.2027 -
Leandro Córdoba Racing Actif 103 / 112 40% 1 03.08.2027 -
Juan Felipe Hincapié Tigres Actif 90 / 82 40% 1 03.08.2027 -
Gonzalo Gutiérrez San Martín Actif 97 / 100 40% 1 03.08.2027 -
David Ledesma Quilmes Actif 104 / 114 40% 1 03.08.2027 -
Franco Balmaceda Quilmes Actif 90 / 84 40% 1 01.08.2027 -
Facundo Borges Central Espanol Actif 80 / 101 40% 1 31.07.2027 -
Rodrigo Gadea Racing Actif 72 / 94 40% 1 29.07.2027 -
Felipe Barrenechea Liverpool Montevideo Actif 89 / 99 40% 1 28.07.2027 -
Nicolás Mello Tacuarembo Actif 94 / 74 40% 1 27.07.2027 -
Benjamín Garay Los Andes Actif 71 / 103 40% 1 27.07.2027 -
Wataru Kamijo Sydney FC Actif 90 / 88 40% 8 23.07.2027 -
Renzo Lo Bianco Sarmiento Actif 84 / 75 40% 1 23.07.2027 -
Kristian Popovic Central Coast Mariners Actif 80 / 81 40% 4 21.07.2027 -
Axel Vargas Uruguay Montevideo Actif 90 / 99 40% 1 21.07.2027 -
Jefferson Gutiérrez Cienciano Actif 77 / 80 40% 1 21.07.2027 -
Lautaro Díaz San Martín Actif 85 / 101 40% 1 20.07.2027 -
Santino Duarte Cortulua Actif 78 / 93 40% 2 19.07.2027 -
Camilo Cardona Valledupar Actif 95 / 72 40% 1 19.07.2027 -
Gabriel Marín Union Magdalena Actif 92 / 75 40% 1 17.07.2027 -
Fernando Macedo Zulia Actif 54 / 77 40% 1 16.07.2027 -
Gonzalo Larrazábal Deportivo Maldonado Actif 108 / 112 40% 2 14.07.2027 -
Martín González San Telmo Actif 116 / 113 40% 1 14.07.2027 -
Brian Benítez Llaneros Actif 113 / 82 40% 1 12.07.2027 -
Danilo Actis Agropecuario Argentino Actif 86 / 90 40% 1 09.07.2027 -
Fabián Píriz Fenix Actif 94 / 93 40% 1 04.07.2027 -
Lucas Pazos Plaza Colonia Actif 96 / 94 40% 1 03.07.2027 -
Mansoor Mohammad Maluku Utara United Actif 71 / 66 40% 3 02.07.2027 -
Ädilet Ömei Taraz Actif 77 / 90 40% 1 02.07.2027 -
Andriano Lebib Perth Glory Actif 93 / 93 40% 1 01.07.2027 -
Harel Goldenberg Hapoel Kiryat Shmona Actif 75 / 74 40% 2 29.06.2027 -
Abdul Rahman PSM Actif 68 / 59 40% 3 28.06.2027 -
Richard Nkomo Newcastle Jets Actif 82 / 84 40% 2 26.06.2027 -
Fabian Talladira Adelaide United Actif 86 / 91 40% 3 25.06.2027 -
Lucas Scicluna Perth Glory Actif 84 / 78 40% 2 25.06.2027 -
Toshikazu Teruuchi Urawa Reds Actif 80 / 73 40% 7 24.06.2027 -
Cristóbal Valbuena Western Sydney Wanderers Actif 70 / 65 40% 1 24.06.2027 -
Yamato Naito Ventforet Kofu Actif 63 / 71 40% 5 23.06.2027 -
Abzal Islamkhan Akzhaiyk Actif 78 / 69 40% 2 23.06.2027 -
Muhammad Iqbal PSIM Actif 75 / 82 40% 2 23.06.2027 -
Peter Antoniou Auckland FC Actif 56 / 78 40% 1 23.06.2027 -
Aren Inoue Sanfrecce Hiroshima Actif 76 / 89 40% 8 22.06.2027 -
Bamidele Ayodamole Ba Actif 60 / 56 40% 2 22.06.2027 -
Kayne Razmovski Ba Actif 77 / 77 40% 1 22.06.2027 -
Will McKay Macarthur FC Actif 75 / 87 40% 3 21.06.2027 -
Shohruh Nematov Akzhaiyk Actif 74 / 81 40% 1 20.06.2027 -
Leonardo Morales Hapoel Tel Aviv Actif 73 / 67 40% 1 18.06.2027 -
Sotiri Phillis Adelaide United Actif 79 / 98 40% 1 18.06.2027 -
Jesús Lara Jubilo Iwata Actif 64 / 89 40% 11 17.06.2027 -
Daniel Atlan Maccabi Netanya Actif 67 / 73 40% 3 17.06.2027 -
Tokumo Kawai Jubilo Iwata Actif 69 / 72 40% 1 17.06.2027 -
Ali Auglah Central Coast Mariners Actif 96 / 94 40% 11 16.06.2027 -
Nkosinathi Nyide Ba Actif 62 / 60 40% 1 16.06.2027 -
Takuto Kimura Yokohama F. Marinos Actif 76 / 84 40% 1 16.06.2027 -
Alper Özdemi̇r Kokand 1912 Actif 81 / 73 40% 2 14.06.2027 -
Diyorbek Mamadaliyev Mashal Actif 61 / 68 40% 1 14.06.2027 -
Alfredo Trejo Avispa Fukuoka Actif 91 / 88 40% 1 13.06.2027 -
Seth Clark Sydney FC Actif 81 / 75 40% 2 10.06.2027 -
Mario Virtuoso FC Tokyo Actif 103 / 104 40% 1 10.06.2027 -
Iowane Matanisiga Labasa Actif 61 / 56 40% 4 09.06.2027 -
Harrison Shillington Melbourne Victory Actif 76 / 67 40% 1 09.06.2027 -
Ulug'bek Sunnatov Shortan Actif 55 / 80 40% 1 07.06.2027 -
Mustafa Sheikh Yousef Bnei Sakhnin Actif 68 / 62 40% 1 06.06.2027 -
Tzuri Zeituni Maccabi Netanya Actif 70 / 65 40% 1 05.06.2027 -
Sani Rizki PSBS Biak Actif 84 / 76 40% 1 05.06.2027 -
Yehonatan Malka Hapoel Kiryat Shmona Actif 76 / 80 40% 2 04.06.2027 -
Iran Madura United Actif 90 / 83 40% 2 03.06.2027 -
Roy Buganim Hapoel Kfar Saba Actif 60 / 73 40% 4 01.06.2027 -
Samuel Chijioke Waitakere United Actif 84 / 77 40% 3 01.06.2027 -
Yaad Gonen Hapoel Haifa Actif 67 / 86 40% 1 01.06.2027 -
Yoga Adiatama Persik Actif 59 / 68 40% 1 01.06.2027 -
Junior Mpanza Irtysh Actif 85 / 76 40% 2 31.05.2027 -
Haruto Matsumoto Kashima Antlers Actif 78 / 68 40% 1 31.05.2027 -
Alexvan Djin Persis Actif 86 / 78 40% 1 31.05.2027 -
Rauof Jbareen Hapoel Acre Actif 62 / 63 40% 1 30.05.2027 -
Abdifatah Mohamed Muse Obod Actif 72 / 79 40% 1 30.05.2027 -
Daniel Simon Auckland City Actif 72 / 79 40% 2 29.05.2027 -
Naftali Balay Akzhaiyk Actif 96 / 77 40% 1 27.05.2027 -
Israel Monga Adelaide United Actif 71 / 82 40% 3 25.05.2027 -
Kishan Sami Ba Actif 74 / 67 40% 2 24.05.2027 -
Moussa Diarra Shonan Bellmare Actif 78 / 77 40% 10 24.05.2027 -
Valentín Morelini Perth Glory Actif 75 / 80 40% 1 24.05.2027 -
Dayron Mosquera Hapoel Tel Aviv Actif 110 / 95 40% 2 23.05.2027 -
Lachlan Middleton Sydney FC Actif 59 / 63 40% 2 21.05.2027 -
Ernesto Gómez Persik Actif 73 / 79 40% 3 20.05.2027 -
Quvonchbek Abrayev Lokomotiv Actif 88 / 71 40% 1 20.05.2027 -
Oliver Evans Perth Glory Actif 85 / 80 40% 1 19.05.2027 -
Ryan Kitto Adelaide United Actif 103 / 97 40% 1 18.05.2027 -
Buyung Ismu Lessy Persijap Actif 67 / 57 40% 1 14.05.2027 -
Isroiljon Tursunboyev Shortan Actif 63 / 68 40% 5 12.05.2027 -
Riley Dalziell Auckland FC Actif 73 / 87 40% 1 12.05.2027 -
Hamoudi Kalaily Bnei Sakhnin Actif 63 / 83 40% 7 06.05.2027 -
Michael Pistiner Bnei Yehuda Actif 89 / 75 40% 1 06.05.2027 -
Tim Tuiloma Canterbury United Actif 71 / 69 40% 1 04.05.2027 -
Etonia Dogalau Ba Actif 55 / 68 40% 2 03.05.2027 -
Nodir Nematov Obod Actif 64 / 75 40% 1 03.05.2027 -
Daichi Suzuki Sagan Tosu Actif 61 / 69 40% 13 29.04.2027 -
Feby Eka Putra Persis Actif 67 / 84 40% 1 26.04.2027 -
Eyad Houssa Hapoel Kfar Saba Actif 69 / 64 40% 1 21.04.2027 -
Xavier Stella Kairat Actif 78 / 69 40% 2 18.04.2027 -
Sahar Hershkovich Bnei Yehuda Actif 57 / 67 40% 3 16.04.2027 -
Sibongakonke Nkosi Metallurg Actif 56 / 72 40% 2 15.04.2027 -
Ryan Kurnia Bhayangkara Presisi Actif 58 / 58 40% 1 15.04.2027 -
Regont Murati Auckland City Actif 75 / 66 40% 1 12.04.2027 -
Joe Lacey Sydney FC Actif 75 / 69 40% 1 10.04.2027 -
Yance Sayuri Maluku Utara United Actif 81 / 90 40% 1 10.04.2027 -
Josaia Sela Rewa Actif 70 / 69 40% 2 07.04.2027 -
Robert Lartey Rewa Actif 58 / 70 40% 1 06.04.2027 -
Aporosa Yada Labasa Actif 56 / 55 40% 3 05.04.2027 -
Theo Numberi Dewa United Actif 57 / 68 40% 1 05.04.2027 -
Jasurbek Ubaydullayev Bukhara Actif 69 / 79 40% 1 23.03.2027 -
Azamat Shomurodov Bukhara Actif 70 / 66 40% 1 22.03.2027 -
Xavier Jodamus AGMK Actif 72 / 72 40% 1 20.03.2027 -
Keisuke Kasai Albirex Niigata Actif 68 / 76 40% 1 20.03.2027 -
Suhrobjon Parmonqulov Mashal Actif 76 / 81 40% 1 19.03.2027 -
Liam Karagula Maccabi Haifa Actif 55 / 58 40% 1 11.03.2027 -
Fidel Origa Ba Actif 77 / 89 40% 2 02.01.2027 -
Zafarbek Akramov Mashal Actif 80 / 67 40% 1 28.12.2026 -
Matías Nicosia Hapoel Kfar Saba Actif 81 / 87 40% 2 25.12.2026 -
Dane Lewis Auckland City Actif 75 / 67 40% 2 19.12.2026 -
Marco Reid Auckland City Actif 83 / 88 40% 1 18.12.2026 -
Javohir Ubaydullayev Nasaf Actif 69 / 96 40% 1 02.12.2026 -
Kiril Todorov Bukhara Actif 73 / 80 40% 1 01.12.2026 -
Jumpei Hayakawa Urawa Reds Actif 78 / 78 40% 1 29.11.2026 -
Shodiyor Shodiboyev Lokomotiv Actif 72 / 97 40% 7 25.11.2026 -
Shungo Sugiura Nagoya Grampus Actif 74 / 87 40% 1 24.11.2026 -
Paris Domfeh Auckland City Actif 61 / 78 40% 1 24.11.2026 -
Saar Elkayam Hapoel Haifa Actif 86 / 101 40% 1 21.11.2026 -
Jubayer Bushnak Bnei Sakhnin Actif 94 / 93 40% 7 16.11.2026 -
Pablo Negro Villarreal Perth Glory Actif 93 / 89 40% 2 14.11.2026 -
Diyorbek Haliyev Shortan Actif 78 / 72 40% 1 14.11.2026 -
Dimitar Mitkov Madura United Actif 94 / 101 40% 1 11.11.2026 -
Alejandro Vera Albirex Niigata Actif 86 / 90 40% 1 10.11.2026 -
Hidetoshi Takeda Vegalta Sendai Actif 89 / 83 40% 1 30.10.2026 -
Ori Hassan Bnei Yehuda Actif 87 / 86 40% 1 14.10.2026 -
Oliver Dragićević Melbourne Victory Actif 75 / 73 40% 1 05.10.2026 -
Kosuke Kinoshita Sanfrecce Hiroshima Actif 114 / 121 40% 5 24.09.2026 -
Nodirxon Xabibullayev Mashal Actif 83 / 73 40% 1 24.09.2026 -
Arkhan Fikri Arema Actif 46 / 56 40% 1 11.09.2026 -
Tevita Waranaivalu Rewa Actif 61 / 70 40% 1 11.09.2026 -
Shalev Saadia Maccabi Tel Aviv Actif 38 / 53 40% 1 01.09.2026 -
Hikmatilla Hikmatov Pakhtakor Actif 73 / 67 40% 1 01.09.2026 -
Santiago Garro Almirante Brown Actif 81 / 82 40% 1 24.08.2026 -
Jeyson Rojas Colo-Colo Actif 85 / 98 40% 1 24.08.2026 -
Ian De Filippi San Lorenzo Actif 67 / 72 40% 1 20.08.2026 -
Nicolás Fernández Maipú Actif 90 / 103 40% 1 20.08.2026 -
Ramiro Paunero Atlético Tucumán Actif 108 / 85 40% 1 20.08.2026 -
Nickel Nakaci Tailevu Naitasiri Actif 53 / 55 55% 1 17.08.2026 -
Juan Felipe Morales Deportivo Cali Actif 79 / 69 40% 1 10.08.2026 -
José Pérez Portuguesa Actif 109 / 85 40% 1 10.08.2026 -
Diego Duarte River Plate Actif 65 / 80 40% 1 04.08.2026 -
Dylan Scicluna Western Sydney Wanderers Actif 86 / 88 40% 1 01.08.2026 -